Hudson, Ohio
Current Conditions -  °F | °C
As of 6:00 AM on Friday 28 Nov 2014 (Local Time) from KPOV Reporting Station
Scattered Clouds Scattered Clouds  
Wind Chill: 10°   Ceiling: Unl
Heat Index: 21°   Visibility: 10mi
Dew Point: 12°   Wind: 10mph
Humidity: 68%   Direction: 280°W
Pressure: 30.3"   Gusts: NA
Location:  41.24°N, 81.44°W
Report Text: KPOV 281100Z AUTO 28009KT 10SM SCT041 M06/M11 A3030 RMK AO2 T10621113
Loading
Personal Weather Stations






























Interactive Weather Map New forecast layout! Learn more

10-Day Weather Forecast

Advertisements
Track Severe Weather on mobile